sensor_id;sensor_type;location;lat;lon;timestamp;P1;durP1;ratioP1;P2;durP2;ratioP2
18681;SDS011;9471;51.168;4.154;2022-08-11T00:02:27;7.75;;;3.25;;
18681;SDS011;9471;51.168;4.154;2022-08-11T00:05:01;8.57;;;2.95;;
18681;SDS011;9471;51.168;4.154;2022-08-11T00:07:31;9.85;;;3.22;;
18681;SDS011;9471;51.168;4.154;2022-08-11T00:09:58;7.38;;;2.85;;
18681;SDS011;9471;51.168;4.154;2022-08-11T00:12:26;7.72;;;2.83;;
18681;SDS011;9471;51.168;4.154;2022-08-11T00:14:58;9.38;;;3.35;;
18681;SDS011;9471;51.168;4.154;2022-08-11T00:17:28;11.88;;;3.53;;
18681;SDS011;9471;51.168;4.154;2022-08-11T00:20:01;9.52;;;3.22;;
18681;SDS011;9471;51.168;4.154;2022-08-11T00:22:31;11.25;;;3.17;;
18681;SDS011;9471;51.168;4.154;2022-08-11T00:24:59;7.43;;;3.20;;
18681;SDS011;9471;51.168;4.154;2022-08-11T00:27:35;8.63;;;3.28;;
18681;SDS011;9471;51.168;4.154;2022-08-11T00:30:04;12.23;;;3.45;;
18681;SDS011;9471;51.168;4.154;2022-08-11T00:32:34;7.97;;;3.30;;
18681;SDS011;9471;51.168;4.154;2022-08-11T00:35:03;8.60;;;3.20;;
18681;SDS011;9471;51.168;4.154;2022-08-11T00:37:32;12.05;;;3.15;;
18681;SDS011;9471;51.168;4.154;2022-08-11T00:40:00;7.50;;;3.30;;
18681;SDS011;9471;51.168;4.154;2022-08-11T00:42:39;8.38;;;3.28;;
18681;SDS011;9471;51.168;4.154;2022-08-11T00:45:10;11.00;;;3.35;;
18681;SDS011;9471;51.168;4.154;2022-08-11T00:47:51;8.63;;;3.00;;
18681;SDS011;9471;51.168;4.154;2022-08-11T00:50:28;7.55;;;2.83;;
18681;SDS011;9471;51.168;4.154;2022-08-11T00:53:10;8.13;;;3.33;;
18681;SDS011;9471;51.168;4.154;2022-08-11T00:59:15;11.82;;;3.00;;
18681;SDS011;9471;51.168;4.154;2022-08-11T01:01:57;6.93;;;2.70;;
18681;SDS011;9471;51.168;4.154;2022-08-11T01:04:44;9.20;;;3.28;;
18681;SDS011;9471;51.168;4.154;2022-08-11T01:07:51;8.27;;;3.22;;
18681;SDS011;9471;51.168;4.154;2022-08-11T01:17:30;9.95;;;3.00;;
18681;SDS011;9471;51.168;4.154;2022-08-11T01:20:45;7.88;;;3.63;;
18681;SDS011;9471;51.168;4.154;2022-08-11T01:29:54;7.60;;;2.90;;
18681;SDS011;9471;51.168;4.154;2022-08-11T01:33:19;8.40;;;3.30;;
18681;SDS011;9471;51.168;4.154;2022-08-11T01:39:28;11.30;;;3.38;;
18681;SDS011;9471;51.168;4.154;2022-08-11T01:45:36;7.63;;;3.33;;
18681;SDS011;9471;51.168;4.154;2022-08-11T01:48:13;10.18;;;3.17;;
18681;SDS011;9471;51.168;4.154;2022-08-11T01:50:57;11.98;;;3.40;;
18681;SDS011;9471;51.168;4.154;2022-08-11T01:53:37;9.77;;;3.10;;
18681;SDS011;9471;51.168;4.154;2022-08-11T01:56:32;10.27;;;3.33;;
18681;SDS011;9471;51.168;4.154;2022-08-11T01:59:09;8.15;;;3.58;;
18681;SDS011;9471;51.168;4.154;2022-08-11T02:01:56;9.73;;;2.70;;
18681;SDS011;9471;51.168;4.154;2022-08-11T02:05:06;7.63;;;3.20;;
18681;SDS011;9471;51.168;4.154;2022-08-11T02:07:48;6.32;;;2.80;;
18681;SDS011;9471;51.168;4.154;2022-08-11T02:10:22;10.48;;;3.03;;
18681;SDS011;9471;51.168;4.154;2022-08-11T02:13:14;13.35;;;3.30;;
18681;SDS011;9471;51.168;4.154;2022-08-11T02:15:49;11.32;;;3.45;;
18681;SDS011;9471;51.168;4.154;2022-08-11T02:18:31;8.90;;;3.50;;
18681;SDS011;9471;51.168;4.154;2022-08-11T02:21:16;9.00;;;3.25;;
18681;SDS011;9471;51.168;4.154;2022-08-11T02:24:10;8.68;;;3.20;;
18681;SDS011;9471;51.168;4.154;2022-08-11T02:26:45;7.97;;;3.17;;
18681;SDS011;9471;51.168;4.154;2022-08-11T02:29:16;9.32;;;3.67;;
18681;SDS011;9471;51.168;4.154;2022-08-11T02:31:53;8.90;;;3.70;;
18681;SDS011;9471;51.168;4.154;2022-08-11T02:34:46;10.48;;;3.35;;
18681;SDS011;9471;51.168;4.154;2022-08-11T02:37:21;12.85;;;3.28;;
18681;SDS011;9471;51.168;4.154;2022-08-11T02:40:01;6.97;;;3.10;;
18681;SDS011;9471;51.168;4.154;2022-08-11T02:42:39;8.48;;;3.38;;
18681;SDS011;9471;51.168;4.154;2022-08-11T02:45:27;11.60;;;3.60;;
18681;SDS011;9471;51.168;4.154;2022-08-11T02:48:01;6.75;;;3.42;;
18681;SDS011;9471;51.168;4.154;2022-08-11T02:50:52;9.07;;;3.80;;
18681;SDS011;9471;51.168;4.154;2022-08-11T02:53:31;10.38;;;3.50;;
18681;SDS011;9471;51.168;4.154;2022-08-11T02:56:06;8.63;;;3.30;;
18681;SDS011;9471;51.168;4.154;2022-08-11T02:58:53;10.60;;;3.80;;
18681;SDS011;9471;51.168;4.154;2022-08-11T03:01:42;9.52;;;3.55;;
18681;SDS011;9471;51.168;4.154;2022-08-11T03:04:17;9.00;;;3.60;;
18681;SDS011;9471;51.168;4.154;2022-08-11T03:06:49;11.23;;;3.70;;
18681;SDS011;9471;51.168;4.154;2022-08-11T03:09:24;8.23;;;3.28;;
18681;SDS011;9471;51.168;4.154;2022-08-11T03:12:08;10.10;;;3.72;;
18681;SDS011;9471;51.168;4.154;2022-08-11T03:15:00;9.95;;;3.63;;
18681;SDS011;9471;51.168;4.154;2022-08-11T03:17:53;10.98;;;3.58;;
18681;SDS011;9471;51.168;4.154;2022-08-11T03:20:34;10.80;;;3.60;;
18681;SDS011;9471;51.168;4.154;2022-08-11T03:23:10;11.35;;;3.42;;
18681;SDS011;9471;51.168;4.154;2022-08-11T03:25:45;9.70;;;3.60;;
18681;SDS011;9471;51.168;4.154;2022-08-11T03:28:27;10.35;;;3.50;;
18681;SDS011;9471;51.168;4.154;2022-08-11T03:31:07;13.07;;;3.63;;
18681;SDS011;9471;51.168;4.154;2022-08-11T03:33:45;8.98;;;3.55;;
18681;SDS011;9471;51.168;4.154;2022-08-11T03:39:36;8.77;;;3.55;;
18681;SDS011;9471;51.168;4.154;2022-08-11T03:42:15;13.73;;;3.60;;
18681;SDS011;9471;51.168;4.154;2022-08-11T03:47:42;10.52;;;3.63;;
18681;SDS011;9471;51.168;4.154;2022-08-11T03:50:22;10.00;;;3.78;;
18681;SDS011;9471;51.168;4.154;2022-08-11T03:53:09;10.35;;;3.80;;
18681;SDS011;9471;51.168;4.154;2022-08-11T03:56:10;12.05;;;3.40;;
18681;SDS011;9471;51.168;4.154;2022-08-11T03:59:03;10.05;;;3.83;;
18681;SDS011;9471;51.168;4.154;2022-08-11T04:02:14;11.95;;;4.10;;
18681;SDS011;9471;51.168;4.154;2022-08-11T04:05:15;16.52;;;4.05;;
18681;SDS011;9471;51.168;4.154;2022-08-11T04:08:14;9.98;;;3.58;;
18681;SDS011;9471;51.168;4.154;2022-08-11T04:11:00;9.80;;;3.80;;
18681;SDS011;9471;51.168;4.154;2022-08-11T04:13:58;11.95;;;4.22;;
18681;SDS011;9471;51.168;4.154;2022-08-11T04:16:53;12.25;;;4.20;;
18681;SDS011;9471;51.168;4.154;2022-08-11T04:19:46;10.00;;;4.20;;
18681;SDS011;9471;51.168;4.154;2022-08-11T04:22:36;10.73;;;4.40;;
18681;SDS011;9471;51.168;4.154;2022-08-11T04:25:35;12.43;;;4.18;;
18681;SDS011;9471;51.168;4.154;2022-08-11T04:28:33;11.82;;;4.18;;
18681;SDS011;9471;51.168;4.154;2022-08-11T04:31:23;11.98;;;4.53;;
18681;SDS011;9471;51.168;4.154;2022-08-11T04:37:30;16.45;;;4.15;;
18681;SDS011;9471;51.168;4.154;2022-08-11T04:46:40;15.68;;;4.40;;
18681;SDS011;9471;51.168;4.154;2022-08-11T04:50:05;11.57;;;4.38;;
18681;SDS011;9471;51.168;4.154;2022-08-11T04:53:25;13.15;;;4.43;;
18681;SDS011;9471;51.168;4.154;2022-08-11T04:56:17;11.07;;;4.55;;
18681;SDS011;9471;51.168;4.154;2022-08-11T04:59:09;14.00;;;4.60;;
18681;SDS011;9471;51.168;4.154;2022-08-11T05:05:14;14.73;;;4.90;;
18681;SDS011;9471;51.168;4.154;2022-08-11T05:08:05;18.05;;;4.85;;
18681;SDS011;9471;51.168;4.154;2022-08-11T05:17:15;10.00;;;4.25;;
18681;SDS011;9471;51.168;4.154;2022-08-11T05:20:08;15.05;;;4.55;;
18681;SDS011;9471;51.168;4.154;2022-08-11T05:22:54;16.23;;;4.70;;
18681;SDS011;9471;51.168;4.154;2022-08-11T05:25:45;11.65;;;4.85;;
18681;SDS011;9471;51.168;4.154;2022-08-11T05:28:31;8.90;;;4.40;;
18681;SDS011;9471;51.168;4.154;2022-08-11T05:31:21;15.98;;;5.32;;
18681;SDS011;9471;51.168;4.154;2022-08-11T05:34:10;14.60;;;4.72;;
18681;SDS011;9471;51.168;4.154;2022-08-11T05:37:01;13.10;;;4.70;;
18681;SDS011;9471;51.168;4.154;2022-08-11T05:39:32;12.75;;;5.10;;
18681;SDS011;9471;51.168;4.154;2022-08-11T05:42:25;18.27;;;5.25;;
18681;SDS011;9471;51.168;4.154;2022-08-11T05:45:11;11.93;;;5.00;;
18681;SDS011;9471;51.168;4.154;2022-08-11T05:47:58;15.15;;;5.53;;
18681;SDS011;9471;51.168;4.154;2022-08-11T05:50:49;15.45;;;5.40;;
18681;SDS011;9471;51.168;4.154;2022-08-11T05:53:42;13.05;;;5.32;;
18681;SDS011;9471;51.168;4.154;2022-08-11T05:56:30;12.13;;;5.38;;
18681;SDS011;9471;51.168;4.154;2022-08-11T05:59:00;19.52;;;5.50;;
18681;SDS011;9471;51.168;4.154;2022-08-11T06:01:28;15.05;;;5.18;;
18681;SDS011;9471;51.168;4.154;2022-08-11T06:03:58;12.75;;;4.90;;
18681;SDS011;9471;51.168;4.154;2022-08-11T06:06:45;21.65;;;5.95;;
18681;SDS011;9471;51.168;4.154;2022-08-11T06:09:24;15.40;;;5.50;;
18681;SDS011;9471;51.168;4.154;2022-08-11T06:11:54;17.13;;;5.15;;
18681;SDS011;9471;51.168;4.154;2022-08-11T06:14:25;16.00;;;5.35;;
18681;SDS011;9471;51.168;4.154;2022-08-11T06:16:54;17.20;;;5.00;;
18681;SDS011;9471;51.168;4.154;2022-08-11T06:19:30;19.20;;;5.70;;
18681;SDS011;9471;51.168;4.154;2022-08-11T06:22:03;15.43;;;5.38;;
18681;SDS011;9471;51.168;4.154;2022-08-11T06:24:32;13.43;;;4.70;;
18681;SDS011;9471;51.168;4.154;2022-08-11T06:27:00;16.88;;;6.00;;
18681;SDS011;9471;51.168;4.154;2022-08-11T06:29:31;17.52;;;5.43;;
18681;SDS011;9471;51.168;4.154;2022-08-11T06:32:01;11.23;;;4.75;;
18681;SDS011;9471;51.168;4.154;2022-08-11T06:34:34;18.38;;;5.47;;
18681;SDS011;9471;51.168;4.154;2022-08-11T06:37:13;16.55;;;5.32;;
18681;SDS011;9471;51.168;4.154;2022-08-11T06:39:47;22.75;;;5.45;;
18681;SDS011;9471;51.168;4.154;2022-08-11T06:42:33;16.35;;;4.53;;
18681;SDS011;9471;51.168;4.154;2022-08-11T06:45:13;18.83;;;5.60;;
18681;SDS011;9471;51.168;4.154;2022-08-11T06:47:50;12.57;;;5.28;;
18681;SDS011;9471;51.168;4.154;2022-08-11T06:50:18;13.50;;;4.82;;
18681;SDS011;9471;51.168;4.154;2022-08-11T06:53:05;15.15;;;5.07;;
18681;SDS011;9471;51.168;4.154;2022-08-11T06:55:38;18.73;;;4.47;;
18681;SDS011;9471;51.168;4.154;2022-08-11T06:58:26;17.75;;;5.10;;
18681;SDS011;9471;51.168;4.154;2022-08-11T07:01:16;14.38;;;4.93;;
18681;SDS011;9471;51.168;4.154;2022-08-11T07:03:53;13.80;;;4.78;;
18681;SDS011;9471;51.168;4.154;2022-08-11T07:06:32;18.95;;;5.32;;
18681;SDS011;9471;51.168;4.154;2022-08-11T07:09:23;14.30;;;4.75;;
18681;SDS011;9471;51.168;4.154;2022-08-11T07:12:37;21.35;;;4.95;;
18681;SDS011;9471;51.168;4.154;2022-08-11T07:15:24;13.35;;;4.82;;
18681;SDS011;9471;51.168;4.154;2022-08-11T07:18:09;15.38;;;4.80;;
18681;SDS011;9471;51.168;4.154;2022-08-11T07:21:05;13.55;;;4.82;;
18681;SDS011;9471;51.168;4.154;2022-08-11T07:23:53;16.00;;;4.50;;
18681;SDS011;9471;51.168;4.154;2022-08-11T07:26:39;18.10;;;4.65;;
18681;SDS011;9471;51.168;4.154;2022-08-11T07:29:28;14.63;;;4.45;;
18681;SDS011;9471;51.168;4.154;2022-08-11T07:31:57;15.07;;;4.30;;
18681;SDS011;9471;51.168;4.154;2022-08-11T07:34:31;11.40;;;4.45;;
18681;SDS011;9471;51.168;4.154;2022-08-11T07:37:03;11.68;;;3.90;;
18681;SDS011;9471;51.168;4.154;2022-08-11T07:39:36;11.48;;;4.13;;
18681;SDS011;9471;51.168;4.154;2022-08-11T07:42:05;9.82;;;3.85;;
18681;SDS011;9471;51.168;4.154;2022-08-11T07:44:34;10.55;;;4.13;;
18681;SDS011;9471;51.168;4.154;2022-08-11T07:47:23;11.13;;;3.65;;
18681;SDS011;9471;51.168;4.154;2022-08-11T07:50:09;11.98;;;4.07;;
18681;SDS011;9471;51.168;4.154;2022-08-11T07:52:55;11.57;;;3.50;;
18681;SDS011;9471;51.168;4.154;2022-08-11T07:55:24;11.27;;;3.30;;
18681;SDS011;9471;51.168;4.154;2022-08-11T07:57:54;9.32;;;3.58;;
18681;SDS011;9471;51.168;4.154;2022-08-11T08:00:42;8.18;;;3.63;;
18681;SDS011;9471;51.168;4.154;2022-08-11T08:03:28;10.32;;;3.38;;
18681;SDS011;9471;51.168;4.154;2022-08-11T08:06:15;9.43;;;3.28;;
18681;SDS011;9471;51.168;4.154;2022-08-11T08:09:00;10.45;;;3.97;;
18681;SDS011;9471;51.168;4.154;2022-08-11T08:11:45;11.98;;;3.45;;
18681;SDS011;9471;51.168;4.154;2022-08-11T08:14:31;13.23;;;3.42;;
18681;SDS011;9471;51.168;4.154;2022-08-11T08:17:16;12.00;;;3.40;;
18681;SDS011;9471;51.168;4.154;2022-08-11T08:20:01;12.75;;;3.15;;
18681;SDS011;9471;51.168;4.154;2022-08-11T08:22:32;10.80;;;3.20;;
18681;SDS011;9471;51.168;4.154;2022-08-11T08:25:00;12.07;;;3.70;;
18681;SDS011;9471;51.168;4.154;2022-08-11T08:27:31;16.85;;;3.70;;
18681;SDS011;9471;51.168;4.154;2022-08-11T08:29:59;10.90;;;3.53;;
18681;SDS011;9471;51.168;4.154;2022-08-11T08:32:45;12.85;;;3.85;;
18681;SDS011;9471;51.168;4.154;2022-08-11T08:35:12;12.80;;;3.35;;
18681;SDS011;9471;51.168;4.154;2022-08-11T08:37:42;14.30;;;4.05;;
18681;SDS011;9471;51.168;4.154;2022-08-11T08:40:09;14.07;;;3.30;;
18681;SDS011;9471;51.168;4.154;2022-08-11T08:42:39;13.30;;;3.83;;
18681;SDS011;9471;51.168;4.154;2022-08-11T08:45:11;13.35;;;3.70;;
18681;SDS011;9471;51.168;4.154;2022-08-11T08:47:44;10.43;;;3.25;;
18681;SDS011;9471;51.168;4.154;2022-08-11T08:50:13;9.95;;;3.40;;
18681;SDS011;9471;51.168;4.154;2022-08-11T08:52:46;12.27;;;3.40;;
18681;SDS011;9471;51.168;4.154;2022-08-11T08:55:18;15.10;;;3.65;;
18681;SDS011;9471;51.168;4.154;2022-08-11T08:57:47;10.80;;;3.45;;
18681;SDS011;9471;51.168;4.154;2022-08-11T09:00:16;12.50;;;3.50;;
18681;SDS011;9471;51.168;4.154;2022-08-11T09:02:44;13.35;;;4.32;;
18681;SDS011;9471;51.168;4.154;2022-08-11T09:05:12;15.88;;;3.40;;
18681;SDS011;9471;51.168;4.154;2022-08-11T09:07:42;14.45;;;3.83;;
18681;SDS011;9471;51.168;4.154;2022-08-11T09:10:13;11.05;;;3.28;;
18681;SDS011;9471;51.168;4.154;2022-08-11T09:12:44;10.27;;;3.13;;
18681;SDS011;9471;51.168;4.154;2022-08-11T09:15:12;9.90;;;3.25;;
18681;SDS011;9471;51.168;4.154;2022-08-11T09:17:41;12.32;;;3.67;;
18681;SDS011;9471;51.168;4.154;2022-08-11T09:20:11;11.13;;;3.53;;
18681;SDS011;9471;51.168;4.154;2022-08-11T09:22:40;11.43;;;3.53;;
18681;SDS011;9471;51.168;4.154;2022-08-11T09:25:29;11.32;;;3.88;;
18681;SDS011;9471;51.168;4.154;2022-08-11T09:28:14;11.65;;;3.30;;
18681;SDS011;9471;51.168;4.154;2022-08-11T09:30:43;13.50;;;3.47;;
18681;SDS011;9471;51.168;4.154;2022-08-11T09:33:12;12.23;;;3.22;;
18681;SDS011;9471;51.168;4.154;2022-08-11T09:35:41;10.75;;;3.05;;
18681;SDS011;9471;51.168;4.154;2022-08-11T09:38:12;14.25;;;3.30;;
18681;SDS011;9471;51.168;4.154;2022-08-11T09:41:00;9.63;;;3.42;;
18681;SDS011;9471;51.168;4.154;2022-08-11T09:43:29;9.43;;;3.00;;
18681;SDS011;9471;51.168;4.154;2022-08-11T09:46:14;7.60;;;2.70;;
18681;SDS011;9471;51.168;4.154;2022-08-11T09:48:44;9.10;;;3.47;;
18681;SDS011;9471;51.168;4.154;2022-08-11T09:51:12;14.30;;;3.03;;
18681;SDS011;9471;51.168;4.154;2022-08-11T09:53:41;8.57;;;3.38;;
18681;SDS011;9471;51.168;4.154;2022-08-11T09:56:12;16.42;;;3.47;;
18681;SDS011;9471;51.168;4.154;2022-08-11T09:58:59;12.15;;;3.58;;
18681;SDS011;9471;51.168;4.154;2022-08-11T10:01:29;12.65;;;3.20;;
18681;SDS011;9471;51.168;4.154;2022-08-11T10:04:00;12.23;;;3.20;;
18681;SDS011;9471;51.168;4.154;2022-08-11T10:06:31;11.40;;;3.63;;
18681;SDS011;9471;51.168;4.154;2022-08-11T10:09:20;10.15;;;3.22;;
18681;SDS011;9471;51.168;4.154;2022-08-11T10:11:52;9.75;;;3.05;;
18681;SDS011;9471;51.168;4.154;2022-08-11T10:14:23;13.07;;;3.65;;
18681;SDS011;9471;51.168;4.154;2022-08-11T10:17:09;10.48;;;3.10;;
18681;SDS011;9471;51.168;4.154;2022-08-11T10:19:38;8.45;;;3.40;;
18681;SDS011;9471;51.168;4.154;2022-08-11T10:22:07;17.10;;;3.67;;
18681;SDS011;9471;51.168;4.154;2022-08-11T10:24:51;18.00;;;3.75;;
18681;SDS011;9471;51.168;4.154;2022-08-11T10:27:37;10.75;;;3.15;;
18681;SDS011;9471;51.168;4.154;2022-08-11T10:30:06;12.02;;;3.60;;
18681;SDS011;9471;51.168;4.154;2022-08-11T10:32:52;9.55;;;3.00;;
18681;SDS011;9471;51.168;4.154;2022-08-11T10:35:38;11.93;;;3.70;;
18681;SDS011;9471;51.168;4.154;2022-08-11T10:38:07;10.18;;;3.17;;
18681;SDS011;9471;51.168;4.154;2022-08-11T10:40:36;11.75;;;3.80;;
18681;SDS011;9471;51.168;4.154;2022-08-11T10:43:06;16.58;;;4.13;;
18681;SDS011;9471;51.168;4.154;2022-08-11T10:45:38;15.10;;;3.17;;
18681;SDS011;9471;51.168;4.154;2022-08-11T10:48:24;14.98;;;3.88;;
18681;SDS011;9471;51.168;4.154;2022-08-11T10:50:53;13.85;;;3.58;;
18681;SDS011;9471;51.168;4.154;2022-08-11T10:53:40;9.27;;;3.35;;
18681;SDS011;9471;51.168;4.154;2022-08-11T10:56:26;6.80;;;3.17;;
18681;SDS011;9471;51.168;4.154;2022-08-11T10:59:14;12.07;;;3.15;;
18681;SDS011;9471;51.168;4.154;2022-08-11T11:01:42;10.38;;;3.47;;
18681;SDS011;9471;51.168;4.154;2022-08-11T11:04:12;9.00;;;3.20;;
18681;SDS011;9471;51.168;4.154;2022-08-11T11:06:45;10.10;;;3.40;;
18681;SDS011;9471;51.168;4.154;2022-08-11T11:09:18;11.32;;;4.00;;
18681;SDS011;9471;51.168;4.154;2022-08-11T11:11:50;10.77;;;3.67;;
18681;SDS011;9471;51.168;4.154;2022-08-11T11:14:39;9.07;;;3.35;;
18681;SDS011;9471;51.168;4.154;2022-08-11T11:17:28;15.05;;;3.60;;
18681;SDS011;9471;51.168;4.154;2022-08-11T11:20:18;9.77;;;3.47;;
18681;SDS011;9471;51.168;4.154;2022-08-11T11:22:49;8.40;;;3.10;;
18681;SDS011;9471;51.168;4.154;2022-08-11T11:25:21;11.55;;;3.58;;
18681;SDS011;9471;51.168;4.154;2022-08-11T11:27:58;10.00;;;3.50;;
18681;SDS011;9471;51.168;4.154;2022-08-11T11:30:44;10.65;;;3.03;;
18681;SDS011;9471;51.168;4.154;2022-08-11T11:33:23;7.07;;;3.35;;
18681;SDS011;9471;51.168;4.154;2022-08-11T11:36:02;7.85;;;3.25;;
18681;SDS011;9471;51.168;4.154;2022-08-11T11:38:39;8.32;;;3.30;;
18681;SDS011;9471;51.168;4.154;2022-08-11T11:41:07;9.52;;;3.30;;
18681;SDS011;9471;51.168;4.154;2022-08-11T11:43:50;12.35;;;3.38;;
18681;SDS011;9471;51.168;4.154;2022-08-11T11:46:20;9.50;;;3.38;;
18681;SDS011;9471;51.168;4.154;2022-08-11T11:48:49;8.07;;;3.40;;
18681;SDS011;9471;51.168;4.154;2022-08-11T11:51:18;9.60;;;3.10;;
18681;SDS011;9471;51.168;4.154;2022-08-11T11:53:46;9.60;;;3.47;;
18681;SDS011;9471;51.168;4.154;2022-08-11T11:56:21;7.57;;;2.90;;
18681;SDS011;9471;51.168;4.154;2022-08-11T11:58:50;14.10;;;4.00;;
18681;SDS011;9471;51.168;4.154;2022-08-11T12:01:37;10.43;;;3.00;;
18681;SDS011;9471;51.168;4.154;2022-08-11T12:04:07;9.65;;;3.25;;
18681;SDS011;9471;51.168;4.154;2022-08-11T12:06:36;5.82;;;2.72;;
18681;SDS011;9471;51.168;4.154;2022-08-11T12:09:03;8.68;;;2.90;;
18681;SDS011;9471;51.168;4.154;2022-08-11T12:11:31;8.13;;;3.17;;
18681;SDS011;9471;51.168;4.154;2022-08-11T12:14:17;7.20;;;3.00;;
18681;SDS011;9471;51.168;4.154;2022-08-11T12:16:47;10.05;;;2.80;;
18681;SDS011;9471;51.168;4.154;2022-08-11T12:19:15;10.77;;;3.08;;
18681;SDS011;9471;51.168;4.154;2022-08-11T12:21:45;11.68;;;3.20;;
18681;SDS011;9471;51.168;4.154;2022-08-11T12:24:31;6.35;;;2.90;;
18681;SDS011;9471;51.168;4.154;2022-08-11T12:27:26;5.38;;;2.50;;
18681;SDS011;9471;51.168;4.154;2022-08-11T12:29:55;10.85;;;2.97;;
18681;SDS011;9471;51.168;4.154;2022-08-11T12:32:28;8.98;;;2.90;;
18681;SDS011;9471;51.168;4.154;2022-08-11T12:34:57;10.05;;;3.22;;
18681;SDS011;9471;51.168;4.154;2022-08-11T12:37:26;10.27;;;3.10;;
18681;SDS011;9471;51.168;4.154;2022-08-11T12:39:57;10.40;;;3.30;;
18681;SDS011;9471;51.168;4.154;2022-08-11T12:42:44;6.85;;;2.83;;
18681;SDS011;9471;51.168;4.154;2022-08-11T12:45:31;7.28;;;2.90;;
18681;SDS011;9471;51.168;4.154;2022-08-11T12:48:07;10.45;;;3.35;;
18681;SDS011;9471;51.168;4.154;2022-08-11T12:50:56;8.18;;;3.13;;
18681;SDS011;9471;51.168;4.154;2022-08-11T12:53:48;6.00;;;3.08;;
18681;SDS011;9471;51.168;4.154;2022-08-11T12:56:19;6.95;;;3.03;;
18681;SDS011;9471;51.168;4.154;2022-08-11T12:59:05;10.48;;;3.03;;
18681;SDS011;9471;51.168;4.154;2022-08-11T13:01:52;10.48;;;3.17;;
18681;SDS011;9471;51.168;4.154;2022-08-11T13:04:39;6.97;;;2.90;;
18681;SDS011;9471;51.168;4.154;2022-08-11T13:07:23;8.07;;;3.10;;
18681;SDS011;9471;51.168;4.154;2022-08-11T13:09:51;9.05;;;3.17;;
18681;SDS011;9471;51.168;4.154;2022-08-11T13:12:19;10.15;;;3.30;;
18681;SDS011;9471;51.168;4.154;2022-08-11T13:15:06;10.63;;;3.00;;
18681;SDS011;9471;51.168;4.154;2022-08-11T13:17:35;8.35;;;3.25;;
18681;SDS011;9471;51.168;4.154;2022-08-11T13:20:06;8.55;;;3.22;;
18681;SDS011;9471;51.168;4.154;2022-08-11T13:22:36;7.20;;;2.58;;
18681;SDS011;9471;51.168;4.154;2022-08-11T13:25:05;9.27;;;2.83;;
18681;SDS011;9471;51.168;4.154;2022-08-11T13:27:33;8.10;;;3.03;;
18681;SDS011;9471;51.168;4.154;2022-08-11T13:30:01;11.65;;;3.08;;
18681;SDS011;9471;51.168;4.154;2022-08-11T13:32:46;8.80;;;3.20;;
18681;SDS011;9471;51.168;4.154;2022-08-11T13:35:15;9.75;;;3.42;;
18681;SDS011;9471;51.168;4.154;2022-08-11T13:37:43;12.30;;;3.55;;
18681;SDS011;9471;51.168;4.154;2022-08-11T13:40:12;13.00;;;3.30;;
18681;SDS011;9471;51.168;4.154;2022-08-11T13:42:42;10.45;;;3.50;;
18681;SDS011;9471;51.168;4.154;2022-08-11T13:45:10;16.13;;;3.60;;
18681;SDS011;9471;51.168;4.154;2022-08-11T13:47:37;10.15;;;3.15;;
18681;SDS011;9471;51.168;4.154;2022-08-11T13:50:05;11.80;;;3.70;;
18681;SDS011;9471;51.168;4.154;2022-08-11T13:52:35;9.43;;;2.80;;
18681;SDS011;9471;51.168;4.154;2022-08-11T13:55:04;9.65;;;3.35;;
18681;SDS011;9471;51.168;4.154;2022-08-11T13:57:32;9.27;;;2.80;;
18681;SDS011;9471;51.168;4.154;2022-08-11T14:00:00;11.40;;;2.90;;
18681;SDS011;9471;51.168;4.154;2022-08-11T14:02:36;9.32;;;3.40;;
18681;SDS011;9471;51.168;4.154;2022-08-11T14:05:07;5.18;;;2.63;;
18681;SDS011;9471;51.168;4.154;2022-08-11T14:07:43;9.45;;;3.42;;
18681;SDS011;9471;51.168;4.154;2022-08-11T14:10:15;7.80;;;3.08;;
18681;SDS011;9471;51.168;4.154;2022-08-11T14:12:45;9.38;;;3.25;;
18681;SDS011;9471;51.168;4.154;2022-08-11T14:15:35;7.45;;;3.13;;
18681;SDS011;9471;51.168;4.154;2022-08-11T14:18:07;13.65;;;2.90;;
18681;SDS011;9471;51.168;4.154;2022-08-11T14:20:39;8.23;;;3.17;;
18681;SDS011;9471;51.168;4.154;2022-08-11T14:23:27;5.90;;;2.75;;
18681;SDS011;9471;51.168;4.154;2022-08-11T14:26:00;7.03;;;2.58;;
18681;SDS011;9471;51.168;4.154;2022-08-11T14:28:45;10.55;;;5.47;;
18681;SDS011;9471;51.168;4.154;2022-08-11T14:31:13;7.50;;;2.90;;
18681;SDS011;9471;51.168;4.154;2022-08-11T14:33:41;7.80;;;3.00;;
18681;SDS011;9471;51.168;4.154;2022-08-11T14:36:09;5.18;;;2.67;;
18681;SDS011;9471;51.168;4.154;2022-08-11T14:38:38;7.68;;;3.10;;
18681;SDS011;9471;51.168;4.154;2022-08-11T14:41:06;9.00;;;2.83;;
18681;SDS011;9471;51.168;4.154;2022-08-11T14:43:52;14.07;;;3.10;;
18681;SDS011;9471;51.168;4.154;2022-08-11T14:46:38;10.32;;;3.13;;
18681;SDS011;9471;51.168;4.154;2022-08-11T14:49:24;10.13;;;2.72;;
18681;SDS011;9471;51.168;4.154;2022-08-11T14:51:52;10.40;;;2.97;;
18681;SDS011;9471;51.168;4.154;2022-08-11T14:54:23;10.60;;;3.03;;
18681;SDS011;9471;51.168;4.154;2022-08-11T14:57:25;9.23;;;2.95;;
18681;SDS011;9471;51.168;4.154;2022-08-11T14:59:53;7.63;;;2.70;;
18681;SDS011;9471;51.168;4.154;2022-08-11T15:02:23;6.97;;;2.65;;
18681;SDS011;9471;51.168;4.154;2022-08-11T15:05:07;7.80;;;2.78;;
18681;SDS011;9471;51.168;4.154;2022-08-11T15:07:35;6.93;;;2.80;;
18681;SDS011;9471;51.168;4.154;2022-08-11T15:10:05;8.18;;;2.90;;
18681;SDS011;9471;51.168;4.154;2022-08-11T15:12:33;8.20;;;2.90;;
18681;SDS011;9471;51.168;4.154;2022-08-11T15:15:03;9.15;;;2.53;;
18681;SDS011;9471;51.168;4.154;2022-08-11T15:17:49;10.68;;;3.35;;
18681;SDS011;9471;51.168;4.154;2022-08-11T15:20:19;8.85;;;2.97;;
18681;SDS011;9471;51.168;4.154;2022-08-11T15:23:04;14.55;;;3.05;;
18681;SDS011;9471;51.168;4.154;2022-08-11T15:25:52;7.32;;;2.55;;
18681;SDS011;9471;51.168;4.154;2022-08-11T15:28:23;5.70;;;2.80;;
18681;SDS011;9471;51.168;4.154;2022-08-11T15:31:09;6.25;;;2.55;;
18681;SDS011;9471;51.168;4.154;2022-08-11T15:34:01;11.30;;;3.10;;
18681;SDS011;9471;51.168;4.154;2022-08-11T15:36:48;8.68;;;2.60;;
18681;SDS011;9471;51.168;4.154;2022-08-11T15:39:39;8.02;;;2.75;;
18681;SDS011;9471;51.168;4.154;2022-08-11T15:42:36;9.02;;;3.00;;
18681;SDS011;9471;51.168;4.154;2022-08-11T15:45:27;11.02;;;3.00;;
18681;SDS011;9471;51.168;4.154;2022-08-11T15:48:21;5.65;;;2.75;;
18681;SDS011;9471;51.168;4.154;2022-08-11T15:50:55;9.02;;;2.95;;
18681;SDS011;9471;51.168;4.154;2022-08-11T15:53:30;7.00;;;2.75;;
18681;SDS011;9471;51.168;4.154;2022-08-11T15:56:03;10.02;;;2.63;;
18681;SDS011;9471;51.168;4.154;2022-08-11T15:58:35;8.88;;;2.83;;
18681;SDS011;9471;51.168;4.154;2022-08-11T16:01:23;9.90;;;2.92;;
18681;SDS011;9471;51.168;4.154;2022-08-11T16:04:13;11.55;;;2.63;;
18681;SDS011;9471;51.168;4.154;2022-08-11T16:06:48;10.07;;;3.50;;
18681;SDS011;9471;51.168;4.154;2022-08-11T16:09:19;5.35;;;2.47;;
18681;SDS011;9471;51.168;4.154;2022-08-11T16:11:50;8.15;;;2.85;;
18681;SDS011;9471;51.168;4.154;2022-08-11T16:14:19;6.78;;;2.90;;
18681;SDS011;9471;51.168;4.154;2022-08-11T16:17:06;9.13;;;2.85;;
18681;SDS011;9471;51.168;4.154;2022-08-11T16:19:36;7.97;;;2.53;;
18681;SDS011;9471;51.168;4.154;2022-08-11T16:22:08;10.25;;;2.45;;
18681;SDS011;9471;51.168;4.154;2022-08-11T16:24:37;8.02;;;2.53;;
18681;SDS011;9471;51.168;4.154;2022-08-11T16:27:09;9.25;;;3.28;;
18681;SDS011;9471;51.168;4.154;2022-08-11T16:29:40;7.88;;;3.22;;
18681;SDS011;9471;51.168;4.154;2022-08-11T16:32:10;8.73;;;3.17;;
18681;SDS011;9471;51.168;4.154;2022-08-11T16:34:45;8.65;;;2.50;;
18681;SDS011;9471;51.168;4.154;2022-08-11T16:37:33;6.95;;;2.50;;
18681;SDS011;9471;51.168;4.154;2022-08-11T16:40:19;6.13;;;2.92;;
18681;SDS011;9471;51.168;4.154;2022-08-11T16:42:48;7.32;;;2.50;;
18681;SDS011;9471;51.168;4.154;2022-08-11T16:45:35;6.50;;;2.33;;
18681;SDS011;9471;51.168;4.154;2022-08-11T16:48:21;9.05;;;2.80;;
18681;SDS011;9471;51.168;4.154;2022-08-11T16:50:52;7.22;;;2.45;;
18681;SDS011;9471;51.168;4.154;2022-08-11T16:53:20;4.82;;;2.30;;